Time;durP1;ratioP1;P1;durP2;ratioP2;P2;SDS_P1;SDS_P2;PMS_P1;PMS_P2;Temp;Humidity;BMP_temperature;BMP_pressure;BME280_temperature;BME280_humidity;BME280_pressure;Samples;Min_cycle;Max_cycle;Signal;HPM_P1;HPM_P2
2024/02/08 00:00:56;;;;;;;10.13;9.53;;;9.10;99.90;;;;;;5030800;28;20203;-78
2024/02/08 00:03:22;;;;;;;10.43;9.83;;;9.10;99.90;;;;;;5045414;28;20625;-78
2024/02/08 00:05:49;;;;;;;10.60;10.00;;;9.10;99.90;;;;;;5032943;28;20257;-78
2024/02/08 00:08:17;;;;;;;10.97;10.27;;;9.10;99.90;;;;;;5044601;28;20254;-78
2024/02/08 00:10:44;;;;;;;10.43;9.83;;;9.20;99.90;;;;;;5052681;28;20191;-78
2024/02/08 00:13:12;;;;;;;11.00;10.40;;;9.20;99.90;;;;;;5044639;28;20251;-78
2024/02/08 00:15:39;;;;;;;10.80;10.10;;;9.20;99.90;;;;;;5027521;28;20207;-78
2024/02/08 00:18:07;;;;;;;10.40;9.83;;;9.20;99.90;;;;;;5046386;28;20200;-78
2024/02/08 00:20:34;;;;;;;10.57;9.97;;;9.10;99.90;;;;;;5045687;28;20650;-78
2024/02/08 00:23:01;;;;;;;10.77;10.17;;;9.20;99.90;;;;;;5029341;28;20277;-78
2024/02/08 00:25:29;;;;;;;10.53;9.93;;;9.10;99.90;;;;;;5042526;28;20262;-78
2024/02/08 00:27:56;;;;;;;10.73;10.13;;;9.10;99.90;;;;;;5029754;28;20191;-78
2024/02/08 00:30:23;;;;;;;10.80;10.20;;;9.10;99.90;;;;;;5043787;28;20196;-78
2024/02/08 00:32:50;;;;;;;10.80;10.20;;;9.10;99.90;;;;;;5044018;28;20215;-78
2024/02/08 00:35:17;;;;;;;11.00;10.40;;;9.10;99.90;;;;;;5013756;28;20627;-78
2024/02/08 00:37:47;;;;;;;11.20;10.50;;;9.10;99.90;;;;;;5049001;28;20571;-78
2024/02/08 00:40:15;;;;;;;10.90;10.30;;;9.10;99.90;;;;;;5046140;28;20203;-78
2024/02/08 00:42:45;;;;;;;10.43;9.93;;;9.10;99.90;;;;;;5024599;28;20597;-78
2024/02/08 00:45:15;;;;;;;10.40;9.80;;;9.10;99.90;;;;;;5047803;28;20237;-78
2024/02/08 00:47:42;;;;;;;10.70;10.10;;;9.10;99.90;;;;;;5018527;28;20199;-78
2024/02/08 00:50:09;;;;;;;11.00;10.40;;;9.00;99.90;;;;;;5048520;28;20217;-78
2024/02/08 00:52:36;;;;;;;10.40;9.90;;;9.00;99.90;;;;;;5023635;28;20211;-78
2024/02/08 00:55:03;;;;;;;10.50;10.00;;;9.00;99.90;;;;;;5049084;28;20207;-78
2024/02/08 00:57:32;;;;;;;10.73;10.13;;;9.00;99.90;;;;;;5045887;28;20698;-78
2024/02/08 01:00:01;;;;;;;10.80;10.20;;;9.00;99.90;;;;;;5050116;28;20381;-78
2024/02/08 01:02:28;;;;;;;10.27;9.77;;;9.00;99.90;;;;;;5045279;28;20219;-78
2024/02/08 01:04:55;;;;;;;10.70;10.10;;;9.00;99.90;;;;;;5044441;28;20202;-78
2024/02/08 01:07:22;;;;;;;10.20;9.70;;;9.00;99.90;;;;;;5047907;28;20227;-78
2024/02/08 01:09:48;;;;;;;10.60;10.00;;;9.10;99.90;;;;;;5038394;28;20223;-78
2024/02/08 01:12:16;;;;;;;10.90;10.30;;;9.10;99.90;;;;;;5030371;28;20215;-78
2024/02/08 01:14:43;;;;;;;10.83;10.23;;;9.10;99.90;;;;;;5028023;28;20223;-78
2024/02/08 01:17:11;;;;;;;10.63;10.03;;;9.10;99.90;;;;;;5031216;28;20282;-78
2024/02/08 01:19:38;;;;;;;10.40;9.80;;;9.10;99.90;;;;;;5019052;28;20199;-78
2024/02/08 01:22:05;;;;;;;10.80;10.20;;;9.10;99.90;;;;;;5042934;28;20203;-78
2024/02/08 01:24:31;;;;;;;10.70;10.10;;;9.10;99.90;;;;;;5032247;28;20227;-78
2024/02/08 01:26:59;;;;;;;10.70;10.07;;;9.10;99.90;;;;;;5045063;28;20200;-78
2024/02/08 01:29:26;;;;;;;10.80;10.20;;;9.10;99.90;;;;;;5042003;28;20227;-78
2024/02/08 01:31:53;;;;;;;10.47;9.87;;;9.10;99.90;;;;;;5029706;28;20199;-79
2024/02/08 01:34:23;;;;;;;10.70;10.13;;;9.10;99.90;;;;;;5023807;28;20219;-78
2024/02/08 01:36:52;;;;;;;10.53;9.97;;;9.20;99.90;;;;;;5031652;28;20195;-78
2024/02/08 01:39:23;;;;;;;10.70;10.00;;;9.20;99.90;;;;;;5024800;28;20224;-78
2024/02/08 01:41:50;;;;;;;10.30;9.80;;;9.20;99.90;;;;;;5051000;28;20199;-78
2024/02/08 01:44:17;;;;;;;10.50;9.90;;;9.20;99.90;;;;;;5021633;28;20220;-78
2024/02/08 01:46:47;;;;;;;10.57;10.07;;;9.20;99.90;;;;;;5025362;28;20626;-77
2024/02/08 01:49:18;;;;;;;11.00;10.40;;;9.20;99.90;;;;;;5019979;28;20201;-78
2024/02/08 01:51:48;;;;;;;10.63;10.03;;;9.20;99.90;;;;;;5028143;28;20195;-78
2024/02/08 01:54:19;;;;;;;10.90;10.30;;;9.20;99.90;;;;;;5027874;28;20673;-78
2024/02/08 01:56:47;;;;;;;10.73;10.10;;;9.20;99.90;;;;;;5019567;28;20294;-78
2024/02/08 01:59:19;;;;;;;11.10;10.40;;;9.20;99.90;;;;;;5029325;28;20663;-78
2024/02/08 02:01:51;;;;;;;10.60;10.00;;;9.30;99.90;;;;;;5020476;28;20681;-78
2024/02/08 02:04:18;;;;;;;10.30;9.80;;;9.30;99.90;;;;;;5048709;28;20226;-78
2024/02/08 02:06:46;;;;;;;11.03;10.33;;;9.30;99.90;;;;;;5045193;28;20317;-78
2024/02/08 02:09:23;;;;;;;11.10;10.50;;;9.30;99.90;;;;;;5049393;28;20282;-78
2024/02/08 02:11:55;;;;;;;10.70;10.10;;;9.30;99.90;;;;;;5031957;28;20195;-78
2024/02/08 02:14:28;;;;;;;10.90;10.30;;;9.40;99.90;;;;;;5024004;28;20285;-78
2024/02/08 02:17:03;;;;;;;10.87;10.27;;;9.40;99.90;;;;;;5027296;28;20250;-78
2024/02/08 02:19:31;;;;;;;11.40;10.80;;;9.40;99.90;;;;;;5030511;28;20257;-78
2024/02/08 02:21:59;;;;;;;11.73;11.10;;;9.50;99.90;;;;;;5042586;28;20283;-78
2024/02/08 02:24:26;;;;;;;11.50;10.90;;;9.50;99.90;;;;;;5029595;28;20246;-78
2024/02/08 02:26:57;;;;;;;11.70;11.10;;;9.50;99.90;;;;;;5026657;28;20251;-78
2024/02/08 02:29:26;;;;;;;11.80;11.20;;;9.50;99.90;;;;;;5030483;28;20207;-78
2024/02/08 02:31:54;;;;;;;11.80;11.10;;;9.50;99.90;;;;;;5031488;28;20196;-78
2024/02/08 02:34:25;;;;;;;11.70;11.00;;;9.50;99.90;;;;;;5025557;28;20282;-78
2024/02/08 02:36:54;;;;;;;11.20;10.60;;;9.50;99.90;;;;;;5033550;28;20199;-78
2024/02/08 02:39:25;;;;;;;11.50;10.90;;;9.50;99.90;;;;;;5026444;28;20222;-78
2024/02/08 02:41:53;;;;;;;11.40;10.80;;;9.50;99.90;;;;;;5052902;28;20191;-78
2024/02/08 02:44:20;;;;;;;11.83;11.23;;;9.50;99.90;;;;;;5044865;28;20589;-78
2024/02/08 02:46:49;;;;;;;11.60;11.00;;;9.40;99.90;;;;;;5039151;28;20226;-78
2024/02/08 02:49:17;;;;;;;11.50;10.90;;;9.40;99.90;;;;;;5047168;28;20188;-78
2024/02/08 02:51:48;;;;;;;11.23;10.63;;;9.40;99.90;;;;;;5028056;28;20669;-78
2024/02/08 02:54:15;;;;;;;12.00;11.30;;;9.40;99.90;;;;;;5047755;28;20224;-78
2024/02/08 02:56:47;;;;;;;11.40;10.80;;;9.40;99.90;;;;;;5046345;28;20264;-78
2024/02/08 02:59:16;;;;;;;11.50;10.90;;;9.40;99.90;;;;;;5049796;28;20291;-78
2024/02/08 03:01:47;;;;;;;12.00;11.40;;;9.40;99.90;;;;;;5047525;28;20662;-78
2024/02/08 03:04:15;;;;;;;12.03;11.33;;;9.40;99.90;;;;;;5028321;28;20216;-78
2024/02/08 03:06:45;;;;;;;11.70;11.10;;;9.40;99.90;;;;;;5029688;28;20206;-78
2024/02/08 03:09:15;;;;;;;11.60;11.00;;;9.40;99.90;;;;;;5045000;28;20207;-78
2024/02/08 03:11:45;;;;;;;11.77;11.17;;;9.40;99.90;;;;;;5048128;28;20200;-78
2024/02/08 03:14:11;;;;;;;11.67;11.07;;;9.40;99.90;;;;;;5028391;28;20215;-78
2024/02/08 03:16:41;;;;;;;11.80;11.20;;;9.40;99.90;;;;;;5048130;28;20218;-78
2024/02/08 03:19:08;;;;;;;11.90;11.30;;;9.40;99.90;;;;;;5047226;28;20213;-78
2024/02/08 03:21:36;;;;;;;11.70;11.10;;;9.40;99.90;;;;;;5046452;28;20210;-78
2024/02/08 03:24:07;;;;;;;11.80;11.20;;;9.40;99.90;;;;;;5039782;28;20314;-78
2024/02/08 03:26:40;;;;;;;11.40;10.80;;;9.40;99.90;;;;;;5049323;28;20196;-78
2024/02/08 03:29:11;;;;;;;11.40;10.80;;;9.40;99.90;;;;;;5028914;28;20199;-78
2024/02/08 03:31:44;;;;;;;11.83;11.23;;;9.40;99.90;;;;;;5050729;28;20670;-78
2024/02/08 03:34:19;;;;;;;12.07;11.47;;;9.30;99.90;;;;;;5025281;28;20227;-78
2024/02/08 03:36:46;;;;;;;11.70;11.10;;;9.40;99.90;;;;;;5032785;28;20617;-78
2024/02/08 03:39:24;;;;;;;11.87;11.27;;;9.40;99.90;;;;;;5042595;28;20228;-78
2024/02/08 03:41:58;;;;;;;11.90;11.30;;;9.40;99.90;;;;;;5023764;28;20296;-78
2024/02/08 03:44:29;;;;;;;11.77;11.17;;;9.40;99.90;;;;;;5039407;28;20777;-78
2024/02/08 03:47:04;;;;;;;11.90;11.30;;;9.40;99.90;;;;;;5028373;28;20687;-78
2024/02/08 03:49:31;;;;;;;11.90;11.30;;;9.40;99.90;;;;;;5040882;28;20670;-78
2024/02/08 03:51:58;;;;;;;12.00;11.40;;;9.40;99.90;;;;;;5028774;28;20242;-79
2024/02/08 03:54:30;;;;;;;11.70;11.10;;;9.40;99.90;;;;;;5028940;28;20211;-80
2024/02/08 03:56:59;;;;;;;11.63;11.03;;;9.40;99.90;;;;;;5031118;28;20741;-80
2024/02/08 03:59:28;;;;;;;11.60;11.00;;;9.50;99.90;;;;;;5007803;28;20201;-80
2024/02/08 04:02:00;;;;;;;11.83;11.23;;;9.50;99.90;;;;;;5025005;28;20199;-80
2024/02/08 04:04:46;;;;;;;11.40;10.80;;;9.50;99.90;;;;;;5018503;28;20226;-80
2024/02/08 04:07:20;;;;;;;11.40;10.80;;;9.40;99.90;;;;;;5032418;28;20685;-80
2024/02/08 04:09:55;;;;;;;11.43;10.83;;;9.40;99.90;;;;;;5028241;28;20262;-80
2024/02/08 04:53:39;;;;;;;11.60;11.00;;;9.50;99.90;;;;;;5020630;28;20219;-79
2024/02/08 04:56:08;;;;;;;12.63;11.93;;;9.50;99.90;;;;;;5029403;28;20297;-78
2024/02/08 04:58:37;;;;;;;12.70;12.10;;;9.50;99.90;;;;;;5024914;28;20205;-78
2024/02/08 05:01:04;;;;;;;12.53;11.93;;;9.50;99.90;;;;;;5043387;28;20341;-77
2024/02/08 05:03:37;;;;;;;12.03;11.43;;;9.50;99.90;;;;;;5047978;28;20585;-78
2024/02/08 05:06:14;;;;;;;12.03;11.40;;;9.50;99.90;;;;;;5042113;28;20200;-77
2024/02/08 05:08:42;;;;;;;12.80;12.20;;;9.50;99.90;;;;;;5046812;28;20548;-77
2024/02/08 05:11:10;;;;;;;13.03;12.37;;;9.50;99.90;;;;;;5043999;28;20214;-77
2024/02/08 05:13:41;;;;;;;11.90;11.30;;;9.50;99.90;;;;;;5042480;28;20263;-78
2024/02/08 05:16:13;;;;;;;12.50;11.90;;;9.50;99.90;;;;;;5029834;28;20251;-78
2024/02/08 05:18:42;;;;;;;12.70;12.00;;;9.50;99.90;;;;;;5025993;28;20234;-77
2024/02/08 05:21:11;;;;;;;12.00;11.40;;;9.40;99.90;;;;;;5046218;28;20226;-78
2024/02/08 05:23:40;;;;;;;12.20;11.60;;;9.40;99.90;;;;;;5048833;28;20296;-78
2024/02/08 05:26:09;;;;;;;13.00;12.27;;;9.40;99.90;;;;;;5040396;28;20192;-77
2024/02/08 05:28:36;;;;;;;13.00;12.30;;;9.40;99.90;;;;;;5029272;28;20210;-77
2024/02/08 05:31:04;;;;;;;14.20;13.50;;;9.50;99.90;;;;;;5046149;28;20200;-77
2024/02/08 05:33:32;;;;;;;13.50;12.70;;;9.50;99.90;;;;;;5030026;28;20705;-78
2024/02/08 05:36:06;;;;;;;12.70;12.00;;;9.50;99.90;;;;;;5027308;28;20216;-77
2024/02/08 05:38:37;;;;;;;13.07;12.37;;;9.50;99.90;;;;;;5048185;28;20190;-78
2024/02/08 05:41:06;;;;;;;12.73;11.93;;;9.50;99.90;;;;;;5048204;28;20206;-77
2024/02/08 05:43:41;;;;;;;12.10;11.50;;;9.50;99.90;;;;;;5022646;28;20242;-78
2024/02/08 05:46:09;;;;;;;12.90;12.20;;;9.50;99.90;;;;;;5038339;28;20673;-78
2024/02/08 05:48:39;;;;;;;12.03;11.40;;;9.50;99.90;;;;;;5041119;28;20220;-78
2024/02/08 05:51:11;;;;;;;11.60;11.00;;;9.50;99.90;;;;;;5043691;28;20206;-78
2024/02/08 05:53:42;;;;;;;12.63;12.03;;;9.50;99.90;;;;;;5020657;28;20219;-77
2024/02/08 05:56:09;;;;;;;12.20;11.60;;;9.50;99.90;;;;;;5032995;28;20222;-78
2024/02/08 05:58:37;;;;;;;11.83;11.13;;;9.60;99.90;;;;;;5025560;28;20288;-78
2024/02/08 06:01:16;;;;;;;11.30;10.70;;;9.60;99.90;;;;;;5009940;28;20652;-78
2024/02/08 06:03:46;;;;;;;11.60;11.00;;;9.60;99.90;;;;;;5044359;28;20215;-77
2024/02/08 06:06:17;;;;;;;12.53;11.83;;;9.60;99.90;;;;;;5028662;28;20203;-77
2024/02/08 06:08:46;;;;;;;12.27;11.57;;;9.60;99.90;;;;;;5029307;28;20196;-78
2024/02/08 06:11:19;;;;;;;11.90;11.27;;;9.60;99.90;;;;;;5044136;28;20208;-78
2024/02/08 06:13:50;;;;;;;11.83;11.23;;;9.60;99.90;;;;;;5044347;28;20610;-78
2024/02/08 06:16:26;;;;;;;11.70;11.10;;;9.60;99.90;;;;;;5027892;28;20634;-77
2024/02/08 06:19:02;;;;;;;11.53;10.93;;;9.60;99.90;;;;;;5018897;28;20619;-78
2024/02/08 06:21:43;;;;;;;12.23;11.53;;;9.50;99.90;;;;;;5031628;28;20194;-77
2024/02/08 06:26:58;;;;;;;11.80;11.20;;;9.50;99.90;;;;;;5053129;28;20666;-78
2024/02/08 06:29:26;;;;;;;12.27;11.67;;;9.50;99.90;;;;;;5028459;28;20382;-78
2024/02/08 06:32:02;;;;;;;12.77;12.07;;;9.50;99.90;;;;;;5045455;28;20630;-78
2024/02/08 06:34:45;;;;;;;12.80;12.10;;;9.50;99.90;;;;;;5032302;28;20218;-77
2024/02/08 06:39:57;;;;;;;13.07;12.37;;;9.50;99.90;;;;;;5040029;28;20204;-78
2024/02/08 06:42:44;;;;;;;12.43;11.83;;;9.60;99.90;;;;;;5024903;28;20199;-78
2024/02/08 07:38:00;;;;;;;10.03;9.50;;;9.90;99.90;;;;;;5066905;28;20225;-77
2024/02/08 07:40:27;;;;;;;10.30;9.70;;;10.00;99.90;;;;;;5068229;28;20196;-77
2024/02/08 07:43:16;;;;;;;10.50;10.00;;;10.00;99.90;;;;;;5066392;28;20292;-76
2024/02/08 07:45:45;;;;;;;10.23;9.73;;;10.10;99.90;;;;;;5067613;28;20198;-77
2024/02/08 07:48:13;;;;;;;9.90;9.40;;;10.10;99.90;;;;;;5065212;28;20238;-77
2024/02/08 07:50:45;;;;;;;10.17;9.60;;;10.10;99.90;;;;;;5066413;28;20586;-77
2024/02/08 07:53:28;;;;;;;10.50;9.90;;;10.10;99.90;;;;;;5067261;28;20649;-77
2024/02/08 07:58:48;;;;;;;10.83;10.20;;;10.10;99.90;;;;;;5074561;28;20199;-78
2024/02/08 08:01:17;;;;;;;10.20;9.70;;;10.10;99.90;;;;;;5054272;28;20864;-77
2024/02/08 08:03:45;;;;;;;10.37;9.77;;;10.10;99.90;;;;;;5053995;28;20216;-77
2024/02/08 08:06:15;;;;;;;10.60;10.00;;;10.10;99.90;;;;;;5052386;28;20705;-77
2024/02/08 08:08:54;;;;;;;11.00;10.40;;;10.10;99.90;;;;;;5053315;28;20205;-77
2024/02/08 08:11:25;;;;;;;10.93;10.33;;;10.10;99.90;;;;;;5052665;28;20245;-77
2024/02/08 08:14:09;;;;;;;10.30;9.80;;;10.10;99.90;;;;;;5054063;28;20234;-77
2024/02/08 08:17:07;;;;;;;11.80;11.10;;;10.10;99.90;;;;;;5049721;28;20193;-77
2024/02/08 08:19:38;;;;;;;11.27;10.67;;;10.20;99.90;;;;;;5044795;28;20685;-78
2024/02/08 08:22:18;;;;;;;10.30;9.80;;;10.20;99.90;;;;;;5053912;28;20286;-77
2024/02/08 08:25:10;;;;;;;10.50;9.93;;;10.40;99.90;;;;;;5048964;28;20619;-79
2024/02/08 08:27:52;;;;;;;11.00;10.40;;;10.50;99.90;;;;;;5049017;28;20323;-80
2024/02/08 08:30:27;;;;;;;9.50;9.00;;;10.70;99.90;;;;;;5052765;28;20295;-78
2024/02/08 08:35:45;;;;;;;11.23;10.63;;;10.80;99.90;;;;;;5042429;28;20191;-78
2024/02/08 08:38:33;;;;;;;11.70;10.90;;;10.80;99.90;;;;;;5050605;28;20203;-78
2024/02/08 08:41:04;;;;;;;11.13;10.53;;;11.00;99.90;;;;;;5053390;28;20721;-77
2024/02/08 08:43:36;;;;;;;11.60;10.90;;;11.10;99.90;;;;;;5052367;28;20227;-78
2024/02/08 08:46:09;;;;;;;11.23;10.63;;;11.30;99.90;;;;;;5053506;28;20263;-78
2024/02/08 08:48:36;;;;;;;10.87;10.27;;;11.40;99.90;;;;;;5053248;28;20260;-78
2024/02/08 08:51:10;;;;;;;11.07;10.47;;;11.50;99.90;;;;;;5051917;28;20209;-78
2024/02/08 08:53:43;;;;;;;11.60;11.00;;;11.50;99.90;;;;;;5051819;28;20227;-78
2024/02/08 08:56:12;;;;;;;10.97;10.37;;;11.50;99.90;;;;;;5052927;28;20277;-77
2024/02/08 08:58:48;;;;;;;10.30;9.80;;;11.60;99.90;;;;;;5052908;28;20221;-78
2024/02/08 09:01:18;;;;;;;9.90;9.30;;;11.70;99.90;;;;;;5053133;28;20191;-78
2024/02/08 09:03:45;;;;;;;10.23;9.73;;;11.70;99.90;;;;;;5051464;28;20293;-78
2024/02/08 09:06:13;;;;;;;10.07;9.50;;;11.80;99.90;;;;;;5051630;28;20195;-78
2024/02/08 09:08:43;;;;;;;10.13;9.63;;;11.90;99.90;;;;;;5051393;28;20704;-78
2024/02/08 09:11:12;;;;;;;10.87;10.27;;;12.00;99.90;;;;;;5052067;28;20195;-79
2024/02/08 09:13:42;;;;;;;10.30;9.80;;;12.10;99.90;;;;;;5051526;28;20223;-78
2024/02/08 09:19:04;;;;;;;10.20;9.70;;;12.00;99.90;;;;;;5051516;28;20569;-78
2024/02/08 09:21:32;;;;;;;10.50;9.90;;;12.00;99.90;;;;;;5043962;28;20253;-78
2024/02/08 09:24:03;;;;;;;10.53;10.00;;;12.00;99.90;;;;;;5053432;28;20223;-78
2024/02/08 09:26:48;;;;;;;10.67;10.07;;;12.00;99.90;;;;;;5045693;28;20683;-78
2024/02/08 09:29:15;;;;;;;9.90;9.40;;;12.00;99.90;;;;;;5052894;28;20199;-76
2024/02/08 09:31:46;;;;;;;10.30;9.80;;;12.10;99.90;;;;;;5052072;28;20245;-79
2024/02/08 09:34:17;;;;;;;10.50;10.00;;;12.10;99.90;;;;;;5052993;28;20221;-80
2024/02/08 09:36:44;;;;;;;10.40;9.90;;;12.20;99.90;;;;;;5053443;28;20214;-78
2024/02/08 09:39:15;;;;;;;10.50;9.90;;;12.30;99.90;;;;;;5052183;28;20727;-78
2024/02/08 09:41:47;;;;;;;10.70;10.10;;;12.40;99.90;;;;;;5052684;28;20282;-78
2024/02/08 09:44:14;;;;;;;10.80;10.20;;;12.50;99.90;;;;;;5052183;28;20223;-78
2024/02/08 09:46:56;;;;;;;10.23;9.73;;;12.60;99.90;;;;;;5050645;28;20309;-78
2024/02/08 09:49:34;;;;;;;10.70;10.10;;;12.70;99.90;;;;;;5052081;28;20207;-78
2024/02/08 09:52:14;;;;;;;10.70;10.10;;;12.70;99.90;;;;;;5051160;28;20658;-78
2024/02/08 09:54:46;;;;;;;10.00;9.50;;;12.70;99.90;;;;;;5052399;28;20229;-78
2024/02/08 09:57:31;;;;;;;10.10;9.60;;;12.70;99.90;;;;;;5051749;28;20287;-77
2024/02/08 10:00:06;;;;;;;9.40;8.90;;;12.70;99.90;;;;;;5050658;28;20195;-78
2024/02/08 10:02:53;;;;;;;9.53;9.03;;;12.70;99.90;;;;;;5045634;28;20722;-78
2024/02/08 10:05:29;;;;;;;9.30;8.80;;;12.80;99.90;;;;;;5049387;28;20285;-78
2024/02/08 10:08:05;;;;;;;9.50;9.00;;;12.80;99.90;;;;;;5050531;28;20217;-78
2024/02/08 10:10:43;;;;;;;9.30;8.77;;;12.70;99.90;;;;;;5045022;28;20195;-78
2024/02/08 10:13:25;;;;;;;9.77;9.27;;;12.60;99.90;;;;;;5048657;28;20219;-78
2024/02/08 10:15:55;;;;;;;10.10;9.60;;;12.60;99.90;;;;;;5050595;28;20203;-78
2024/02/08 10:18:33;;;;;;;9.90;9.40;;;12.60;99.90;;;;;;5051746;28;20195;-78
2024/02/08 10:21:12;;;;;;;9.90;9.40;;;12.70;99.90;;;;;;5050216;28;20238;-78
2024/02/08 10:23:48;;;;;;;10.00;9.50;;;12.70;99.90;;;;;;5044234;28;20566;-78
2024/02/08 10:26:20;;;;;;;10.00;9.50;;;12.70;99.90;;;;;;5050258;28;20575;-78
2024/02/08 10:28:47;;;;;;;10.40;9.80;;;12.70;99.90;;;;;;5050326;28;20219;-78
2024/02/08 10:31:22;;;;;;;10.00;9.40;;;12.70;99.90;;;;;;5050388;28;20198;-78
2024/02/08 10:33:57;;;;;;;10.27;9.57;;;12.70;99.90;;;;;;5050876;28;20295;-78
2024/02/08 10:36:31;;;;;;;10.87;10.27;;;12.50;99.90;;;;;;5051690;28;20230;-79
2024/02/08 10:39:07;;;;;;;9.70;9.20;;;12.40;99.90;;;;;;5051942;28;20195;-78
2024/02/08 10:41:38;;;;;;;10.13;9.60;;;12.30;99.90;;;;;;5050815;28;20206;-77
2024/02/08 10:44:17;;;;;;;10.23;9.73;;;12.20;99.90;;;;;;5052325;28;20646;-78
2024/02/08 10:46:46;;;;;;;10.57;10.07;;;12.10;99.90;;;;;;5050048;28;20203;-78
2024/02/08 10:49:14;;;;;;;11.00;10.40;;;12.10;99.90;;;;;;5052462;28;20195;-78
2024/02/08 10:51:43;;;;;;;11.00;10.40;;;12.10;99.90;;;;;;5052163;28;20202;-78
2024/02/08 10:54:15;;;;;;;11.20;10.60;;;12.10;99.90;;;;;;5050609;28;20222;-79
2024/02/08 10:56:48;;;;;;;11.00;10.43;;;12.30;99.90;;;;;;5053047;28;20210;-79
2024/02/08 10:59:38;;;;;;;11.10;10.50;;;12.40;99.90;;;;;;5053090;28;20281;-77
2024/02/08 11:02:08;;;;;;;11.20;10.60;;;12.50;99.90;;;;;;5052507;28;20655;-79
2024/02/08 11:04:40;;;;;;;10.80;10.20;;;12.70;99.90;;;;;;5049699;28;20302;-78
2024/02/08 11:07:17;;;;;;;11.57;10.97;;;12.90;99.90;;;;;;5050023;28;20605;-78
2024/02/08 11:09:45;;;;;;;11.53;10.93;;;13.00;99.90;;;;;;5051058;28;20222;-79
2024/02/08 11:12:21;;;;;;;11.63;11.03;;;13.10;99.90;;;;;;5049422;28;20205;-78
2024/02/08 11:14:56;;;;;;;9.00;8.50;;;13.30;99.90;;;;;;5059659;28;20208;-78
2024/02/08 11:17:27;;;;;;;5.67;5.37;;;13.40;99.90;;;;;;5049382;28;20199;-78
2024/02/08 11:19:56;;;;;;;3.90;3.57;;;13.50;99.90;;;;;;5051252;28;20199;-79
2024/02/08 11:22:39;;;;;;;3.30;3.20;;;13.50;99.90;;;;;;5049540;28;20700;-78
2024/02/08 11:25:20;;;;;;;4.23;4.03;;;13.50;99.90;;;;;;5051459;28;20204;-79
2024/02/08 11:27:50;;;;;;;7.20;6.80;;;13.50;99.90;;;;;;5061959;28;20284;-79
2024/02/08 11:30:20;;;;;;;10.47;9.97;;;13.40;99.90;;;;;;5050866;28;20227;-78
2024/02/08 11:33:01;;;;;;;10.30;9.80;;;13.50;99.90;;;;;;5050719;28;20296;-79
2024/02/08 11:35:31;;;;;;;10.93;10.33;;;13.50;99.90;;;;;;5054960;28;20197;-78
2024/02/08 11:38:10;;;;;;;10.80;10.20;;;13.50;99.90;;;;;;5053108;28;20270;-78
2024/02/08 11:40:37;;;;;;;10.90;10.27;;;13.50;99.90;;;;;;5053930;28;20223;-78
2024/02/08 11:43:05;;;;;;;10.90;10.30;;;13.60;99.90;;;;;;5053237;28;20263;-78
2024/02/08 11:45:35;;;;;;;11.23;10.53;;;13.60;99.90;;;;;;5055141;28;20204;-78
2024/02/08 11:48:04;;;;;;;11.13;10.53;;;13.60;99.90;;;;;;5053520;28;20249;-78
2024/02/08 11:50:36;;;;;;;11.30;10.50;;;13.70;99.90;;;;;;5054691;28;20198;-77
2024/02/08 11:53:05;;;;;;;11.70;10.80;;;13.70;99.90;;;;;;5053671;28;20298;-78
2024/02/08 11:55:33;;;;;;;10.50;9.90;;;13.70;99.90;;;;;;5070269;28;20658;-78
2024/02/08 11:58:05;;;;;;;10.90;10.20;;;13.70;99.90;;;;;;5048940;28;20644;-80
2024/02/08 12:00:45;;;;;;;11.53;10.83;;;13.70;99.90;;;;;;5054281;28;20231;-78
2024/02/08 12:03:16;;;;;;;10.80;10.20;;;13.70;99.90;;;;;;5052659;28;20224;-78
2024/02/08 12:05:52;;;;;;;10.90;10.30;;;13.70;99.90;;;;;;5054572;28;20678;-78
2024/02/08 12:08:21;;;;;;;11.00;10.30;;;13.70;99.90;;;;;;5052969;28;20592;-80
2024/02/08 12:10:49;;;;;;;11.40;10.80;;;13.80;99.90;;;;;;5054207;28;20191;-79
2024/02/08 12:13:16;;;;;;;11.80;11.00;;;13.90;99.90;;;;;;5054167;28;20219;-78
2024/02/08 12:15:55;;;;;;;11.90;11.13;;;14.00;99.90;;;;;;5054020;28;20550;-78
2024/02/08 12:18:23;;;;;;;12.03;11.23;;;14.00;99.90;;;;;;5051423;28;20673;-77
2024/02/08 12:20:55;;;;;;;11.70;10.90;;;14.10;99.90;;;;;;5053871;28;20261;-78
2024/02/08 12:23:24;;;;;;;11.27;10.67;;;14.00;99.90;;;;;;5053377;28;20308;-78
2024/02/08 12:25:54;;;;;;;11.60;10.80;;;14.10;99.90;;;;;;5052304;28;20201;-78
2024/02/08 12:28:24;;;;;;;12.07;11.27;;;14.10;99.90;;;;;;5046237;28;20227;-77
2024/02/08 12:30:59;;;;;;;11.93;11.10;;;14.00;99.90;;;;;;5048195;28;20217;-78
2024/02/08 12:33:27;;;;;;;12.10;11.40;;;14.00;99.90;;;;;;5052418;28;20228;-78
2024/02/08 12:35:54;;;;;;;12.20;11.30;;;14.10;99.90;;;;;;5052476;28;20216;-78
2024/02/08 12:38:22;;;;;;;11.80;11.10;;;14.20;99.90;;;;;;5053160;28;20202;-78
2024/02/08 12:40:50;;;;;;;12.33;11.53;;;14.30;99.90;;;;;;5053270;28;20194;-78
2024/02/08 12:43:19;;;;;;;12.30;11.40;;;14.40;99.90;;;;;;5069147;28;20283;-78
2024/02/08 12:45:53;;;;;;;13.17;11.87;;;14.30;99.90;;;;;;5051943;28;20564;-78
2024/02/08 12:48:21;;;;;;;12.33;11.43;;;14.30;99.90;;;;;;5051994;28;20275;-78
2024/02/08 12:50:52;;;;;;;12.70;11.60;;;14.20;99.90;;;;;;5046793;28;20662;-78
2024/02/08 12:53:21;;;;;;;13.40;11.57;;;14.20;99.90;;;;;;5049447;28;20226;-78
2024/02/08 12:55:47;;;;;;;11.97;11.17;;;14.20;99.90;;;;;;5046132;28;20655;-78
2024/02/08 12:58:18;;;;;;;11.50;10.70;;;14.30;99.90;;;;;;5052824;28;20221;-78
2024/02/08 13:01:04;;;;;;;12.53;11.40;;;14.30;99.90;;;;;;5053135;28;20203;-78
2024/02/08 13:03:32;;;;;;;12.40;11.43;;;14.20;99.90;;;;;;5050640;28;20225;-78
2024/02/08 13:06:01;;;;;;;12.77;11.50;;;14.30;99.90;;;;;;5051725;28;20218;-78
2024/02/08 13:08:33;;;;;;;12.57;11.40;;;14.40;99.90;;;;;;5052479;28;20205;-77
2024/02/08 13:11:01;;;;;;;12.77;11.57;;;14.40;99.90;;;;;;5051665;28;20682;-78
2024/02/08 13:13:28;;;;;;;12.33;11.20;;;14.40;99.90;;;;;;5051285;28;20233;-78
2024/02/08 13:16:09;;;;;;;12.40;11.40;;;14.40;99.90;;;;;;5052762;28;20236;-78
2024/02/08 13:18:41;;;;;;;12.60;11.47;;;14.60;99.90;;;;;;5046116;28;20741;-80
2024/02/08 13:21:09;;;;;;;13.43;12.13;;;14.60;99.90;;;;;;5050104;28;20574;-78
2024/02/08 13:23:36;;;;;;;13.07;11.63;;;14.60;99.90;;;;;;5051325;28;20258;-78
2024/02/08 13:26:06;;;;;;;13.40;12.00;;;14.50;99.90;;;;;;5049990;28;20689;-78
2024/02/08 13:28:33;;;;;;;14.20;11.57;;;14.40;99.90;;;;;;5052544;28;20257;-78
2024/02/08 13:31:05;;;;;;;12.20;11.00;;;14.40;99.90;;;;;;5052665;28;20202;-79
2024/02/08 13:33:36;;;;;;;12.90;11.90;;;14.40;99.90;;;;;;5054768;28;20304;-78
2024/02/08 13:36:08;;;;;;;12.70;11.40;;;14.40;99.90;;;;;;5055302;28;20260;-78
2024/02/08 13:38:38;;;;;;;13.07;11.70;;;14.50;99.90;;;;;;5050955;28;20209;-77
2024/02/08 13:41:09;;;;;;;13.23;11.93;;;14.60;99.90;;;;;;5062435;28;20205;-77
2024/02/08 13:43:39;;;;;;;13.80;12.40;;;14.70;99.90;;;;;;5050061;28;20272;-77
2024/02/08 13:46:07;;;;;;;14.47;12.13;;;14.80;99.90;;;;;;5052371;28;20685;-77
2024/02/08 13:48:34;;;;;;;13.60;12.30;;;14.90;99.90;;;;;;5052266;28;20288;-79
2024/02/08 13:51:06;;;;;;;16.00;12.40;;;15.00;99.90;;;;;;5052370;28;20536;-81
2024/02/08 13:53:35;;;;;;;12.77;11.47;;;15.00;99.90;;;;;;5050933;28;20226;-81
2024/02/08 13:56:05;;;;;;;12.93;11.67;;;15.00;99.90;;;;;;5047534;28;20188;-78
2024/02/08 13:58:35;;;;;;;13.77;12.10;;;15.00;99.90;;;;;;5047913;28;20731;-78
2024/02/08 14:01:02;;;;;;;13.30;12.00;;;14.90;99.90;;;;;;5048212;28;20654;-80
2024/02/08 14:03:30;;;;;;;12.20;10.97;;;14.80;99.90;;;;;;5051909;28;20215;-79
2024/02/08 14:05:59;;;;;;;12.50;11.30;;;14.80;99.90;;;;;;5045475;28;20195;-79
2024/02/08 14:08:27;;;;;;;12.83;11.37;;;14.70;99.90;;;;;;5049953;28;20223;-79
2024/02/08 14:10:54;;;;;;;15.40;11.53;;;14.80;99.90;;;;;;5051574;28;20281;-78
2024/02/08 14:13:28;;;;;;;12.80;11.60;;;14.90;99.90;;;;;;5050292;28;20344;-80
2024/02/08 14:16:00;;;;;;;12.90;11.60;;;14.90;99.90;;;;;;5045232;28;20216;-78
2024/02/08 14:18:31;;;;;;;16.23;12.27;;;14.80;99.90;;;;;;5049816;28;20300;-80
2024/02/08 14:21:00;;;;;;;15.27;11.53;;;14.70;99.90;;;;;;5048745;28;20217;-79
2024/02/08 14:23:37;;;;;;;19.10;12.33;;;14.60;99.90;;;;;;5050282;28;20242;-79
2024/02/08 14:26:30;;;;;;;14.00;12.13;;;14.50;99.90;;;;;;5047286;28;20201;-79
2024/02/08 14:28:57;;;;;;;12.90;11.57;;;14.40;99.90;;;;;;5044221;28;20202;-79
2024/02/08 14:31:23;;;;;;;14.43;13.00;;;14.30;99.90;;;;;;5051614;28;20208;-79
2024/02/08 14:33:51;;;;;;;12.97;11.60;;;14.20;99.90;;;;;;5050775;28;20218;-79
2024/02/08 14:36:19;;;;;;;15.90;11.53;;;14.10;99.90;;;;;;5049898;28;20203;-79
2024/02/08 14:38:45;;;;;;;13.70;11.93;;;14.00;99.90;;;;;;5058916;28;20640;-80
2024/02/08 14:41:25;;;;;;;15.30;11.87;;;14.00;99.90;;;;;;5049964;28;20205;-79